Carnival Triumph — C6FN5 — position and weather

sailwx.info

Track history (hours):
 
Tides and Currents Weather Stations Pressure Air Temp Water Temp Dewpoint Dewpoint Depression Visibility Wind Speed Wind Dir Waves Ship Positions

Carnival Triumph

Operator: Carnival Cruise Lines

Last reported at 2015-Jul-29 22:33 UTC. Time now 2015-Jul-31 19:29 UTC.
Position N 20°31' W 086°58'.

Type: Ship. MMSI: 308045000.

Date/timePositionNaut miles runAvg speedWind from/ knotsBaromVisibWave heightAir tempDewpointWater temp
2015-Jul-29 22:33N 20°31' W 086°58'2 2.2
2015-Jul-29 21:29N 20°29' W 086°59'0 0.0
2015-Jul-29 20:29N 20°29' W 086°59'0 0.0
2015-Jul-29 19:32N 20°29' W 086°59'0 0.0
2015-Jul-29 18:33N 20°29' W 086°59'0 0.0
2015-Jul-29 17:32N 20°29' W 086°59'0 0.0
2015-Jul-29 16:26N 20°29' W 086°59'0 0.0
2015-Jul-29 15:31N 20°29' W 086°59'0 0.0
2015-Jul-29 14:32N 20°29' W 086°59'0 0.0
2015-Jul-29 13:31N 20°29' W 086°59'0 0.2
2015-Jul-29 12:33N 20°29' W 086°59'  
2015-Jul-25 22:34N 20°30' W 086°59'2 1.6
2015-Jul-25 21:32N 20°29' W 086°59'0 0.0
2015-Jul-25 20:32N 20°29' W 086°59'0 0.0
2015-Jul-25 19:29N 20°29' W 086°59'0 0.0
2015-Jul-25 18:32N 20°29' W 086°59'0 0.0
2015-Jul-25 17:29N 20°29' W 086°59'0 0.0
2015-Jul-25 16:32N 20°29' W 086°59'0 0.0
2015-Jul-25 15:32N 20°29' W 086°59'0 0.0
2015-Jul-25 14:29N 20°29' W 086°59'0 0.0
2015-Jul-25 13:32N 20°29' W 086°59'0 0.1
2015-Jul-25 12:33N 20°29' W 086°59'68017.4
2015-Jul-23 21:32N 29°19' W 094°47'1 0.1
2015-Jul-23 13:12N 29°19' W 094°48'67718.0
2015-Jul-21 23:33N 20°33' W 086°58'4 4.3
2015-Jul-21 22:32N 20°29' W 086°59'0 0.0
2015-Jul-21 21:29N 20°29' W 086°59'0 0.0
2015-Jul-21 20:29N 20°29' W 086°59'0 0.0
2015-Jul-21 19:32N 20°29' W 086°59'0 0.0
2015-Jul-21 18:32N 20°29' W 086°59'0 0.0
2015-Jul-21 17:32N 20°29' W 086°59'0 0.0
2015-Jul-21 16:32N 20°29' W 086°59'0 0.0
2015-Jul-21 15:26N 20°29' W 086°59'0 0.0
2015-Jul-21 14:30N 20°29' W 086°59'0 0.2
2015-Jul-21 13:33N 20°29' W 086°59'  
Track history (hours):
 
Tides and Currents Weather Stations Pressure Air Temp Water Temp Dewpoint Dewpoint Depression Visibility Wind Speed Wind Dir Waves Ship Positions

Carnival Triumph

Operator: Carnival Cruise Lines

Last reported at 2015-Jul-29 22:33 UTC. Time now 2015-Jul-31 19:29 UTC.
Position N 20°31' W 086°58'.

Type: Ship. MMSI: 308045000.

Date/timePositionNaut miles runAvg speedWind from/ knotsBaromVisibWave heightAir tempDewpointWater temp
2015-Jul-29 22:33N 20°31' W 086°58'2 2.2
2015-Jul-29 21:29N 20°29' W 086°59'0 0.0
2015-Jul-29 20:29N 20°29' W 086°59'0 0.0
2015-Jul-29 19:32N 20°29' W 086°59'0 0.0
2015-Jul-29 18:33N 20°29' W 086°59'0 0.0
2015-Jul-29 17:32N 20°29' W 086°59'0 0.0
2015-Jul-29 16:26N 20°29' W 086°59'0 0.0
2015-Jul-29 15:31N 20°29' W 086°59'0 0.0
2015-Jul-29 14:32N 20°29' W 086°59'0 0.0
2015-Jul-29 13:31N 20°29' W 086°59'0 0.2
2015-Jul-29 12:33N 20°29' W 086°59'  
2015-Jul-25 22:34N 20°30' W 086°59'2 1.6
2015-Jul-25 21:32N 20°29' W 086°59'0 0.0
2015-Jul-25 20:32N 20°29' W 086°59'0 0.0
2015-Jul-25 19:29N 20°29' W 086°59'0 0.0
2015-Jul-25 18:32N 20°29' W 086°59'0 0.0
2015-Jul-25 17:29N 20°29' W 086°59'0 0.0
2015-Jul-25 16:32N 20°29' W 086°59'0 0.0
2015-Jul-25 15:32N 20°29' W 086°59'0 0.0
2015-Jul-25 14:29N 20°29' W 086°59'0 0.0
2015-Jul-25 13:32N 20°29' W 086°59'0 0.1
2015-Jul-25 12:33N 20°29' W 086°59'68017.4
2015-Jul-23 21:32N 29°19' W 094°47'1 0.1
2015-Jul-23 13:12N 29°19' W 094°48'67718.0
2015-Jul-21 23:33N 20°33' W 086°58'4 4.3
2015-Jul-21 22:32N 20°29' W 086°59'0 0.0
2015-Jul-21 21:29N 20°29' W 086°59'0 0.0
2015-Jul-21 20:29N 20°29' W 086°59'0 0.0
2015-Jul-21 19:32N 20°29' W 086°59'0 0.0
2015-Jul-21 18:32N 20°29' W 086°59'0 0.0
2015-Jul-21 17:32N 20°29' W 086°59'0 0.0
2015-Jul-21 16:32N 20°29' W 086°59'0 0.0
2015-Jul-21 15:26N 20°29' W 086°59'0 0.0
2015-Jul-21 14:30N 20°29' W 086°59'0 0.2
2015-Jul-21 13:33N 20°29' W 086°59'  

Dump ship's entire track history